WetterOnline ( https://www.wetteronline.de )

Wetter aktuell Unterthingau

Aktuelles Wetter: Kempten (705m)

6-stündlich | Neueste Meldungen
Ortszeit Temperatur Wetter
So, 05.02. 7:00 -2.2° C Nebel
So, 05.02. 1:00 -0.2° C bewölkt
Sa, 04.02. 19:00 -0.2° C wolkig
Sa, 04.02. 13:00 3.4° C bewölkt
Sa, 04.02. 7:00 1.9° C leichter Regen
Sa, 04.02. 1:00 2.2° C leichter Regen
Fr, 03.02. 19:00 4.2° C bedeckt
Fr, 03.02. 13:00 4.5° C bedeckt
Ortszeit Temperatur Wetter
So, 05.02. 11:00 0.1° C bedeckt
So, 05.02. 10:50 0.1° C bedeckt
So, 05.02. 10:40 0.0° C bedeckt
So, 05.02. 10:30 -0.3° C bedeckt
So, 05.02. 10:20 -0.3° C bedeckt
So, 05.02. 10:10 -0.7° C bedeckt
So, 05.02. 10:00 -0.9° C bewölkt
So, 05.02. 9:30 -1.0° C bewölkt
So, 05.02. 9:00 -1.8° C Nebel
So, 05.02. 8:30 -2.6° C Nebel
So, 05.02. 8:00 -2.6° C Nebel
Ortszeit Relative Feuchte Sichtweite
So, 05.02. 7:00 97% 0.5 km
So, 05.02. 1:00 94% 12 km
Sa, 04.02. 19:00 92% 19 km
Sa, 04.02. 13:00 86% 28 km
Sa, 04.02. 7:00 94% 30 km
Sa, 04.02. 1:00 90% 13 km
Fr, 03.02. 19:00 72% 50 km
Fr, 03.02. 13:00 67% 65 km
Ortszeit Relative Feuchte Sichtweite
So, 05.02. 11:00 84% 45 km
So, 05.02. 10:50 84% -
So, 05.02. 10:40 90% -
So, 05.02. 10:30 92% 28 km
So, 05.02. 10:20 92% -
So, 05.02. 10:10 91% -
So, 05.02. 10:00 92% 27 km
So, 05.02. 9:30 94% 19 km
So, 05.02. 9:00 98% 4.1 km
So, 05.02. 8:30 97% 0.2 km
So, 05.02. 8:00 96% 0.4 km
Ortszeit Niederschlagsmenge Niederschlagsart
So, 05.02. 7:00 0.0 l/m2 in 12 Std. -
So, 05.02. 1:00 0.0 l/m2 in 6 Std. -
Sa, 04.02. 19:00 0.6 l/m2 in 12 Std. Schnee, Regen
Sa, 04.02. 13:00 0.6 l/m2 in 6 Std. Regen
Sa, 04.02. 7:00 6 l/m2 in 12 Std. Regen
Sa, 04.02. 1:00 1 l/m2 in 6 Std. Regen
Fr, 03.02. 19:00 0.0 l/m2 in 12 Std. -
Fr, 03.02. 13:00 0.0 l/m2 in 6 Std. -
Ortszeit Niederschlagsmenge Niederschlagsart
So, 05.02. 11:00 0.0 l/m2 in 1 Std. -
So, 05.02. 10:50 keine Meldung -
So, 05.02. 10:40 keine Meldung -
So, 05.02. 10:30 0.0 l/m2 in 30 Min -
So, 05.02. 10:20 keine Meldung -
So, 05.02. 10:10 keine Meldung -
So, 05.02. 10:00 0.0 l/m2 in 1 Std. -
So, 05.02. 9:30 0.0 l/m2 in 30 Min -
So, 05.02. 9:00 0.0 l/m2 in 1 Std. -
So, 05.02. 8:30 0.0 l/m2 in 30 Min -
So, 05.02. 8:00 0.0 l/m2 in 1 Std. -
Ortszeit Stärke Spitze Richtung
km/h Bft. km/h Grad Sektor
So, 05.02. 7:00 4 1 11 170° S
So, 05.02. 1:00 2 1 7 30° NO
Sa, 04.02. 19:00 6 1 15 110° O
Sa, 04.02. 13:00 4 1 14 350° N
Sa, 04.02. 7:00 7 2 43 110° O
Sa, 04.02. 1:00 18 3 50 220° SW
Fr, 03.02. 19:00 17 3 44 210° SW
Fr, 03.02. 13:00 11 2 36 240° SW
Ortszeit Stärke Spitze Richtung
km/h Bft. km/h Grad Sektor
So, 05.02. 11:00 7 2 14 180° S
So, 05.02. 10:50 7 2 - 180° S
So, 05.02. 10:40 7 2 - 180° S
So, 05.02. 10:30 9 2 15 170° S
So, 05.02. 10:20 9 2 - 170° S
So, 05.02. 10:10 7 2 - 180° S
So, 05.02. 10:00 7 2 14 180° S
So, 05.02. 9:30 4 1 7 160° S
So, 05.02. 9:00 4 1 7 140° SO
So, 05.02. 8:30 6 1 7 120° SO
So, 05.02. 8:00 4 1 7 170° S
Ortszeit Untergrenze Bedeckung Gattung
total tief tief mittel hoch
So, 05.02. 7:00 <30 m 8/8 0/8 - - -
So, 05.02. 1:00 1290 m 7/8 7/8 - - -
Sa, 04.02. 19:00 1290 m 7/8 4/8 - - -
Sa, 04.02. 13:00 240 m 7/8 7/8 - - -
Sa, 04.02. 7:00 270 m 7/8 7/8 - - -
Sa, 04.02. 1:00 1110 m 5/8 5/8 - - -
Fr, 03.02. 19:00 660 m 8/8 8/8 - - -
Fr, 03.02. 13:00 810 m 8/8 8/8 - - -
Ortszeit Bedeckungsgrad in Achtel und Wolkenuntergrenze
So, 05.02. 11:00 7(2100m) 8(2700m)
So, 05.02. 10:50 7(2100m) 8(2700m)
So, 05.02. 10:40 8
So, 05.02. 10:30 2(1140m) 3(1800m) 8(2700m)
So, 05.02. 10:20 2(1140m) 3(1800m) 8(2700m)
So, 05.02. 10:10 8
So, 05.02. 10:00 7(1110m) 7(1800m) 7(2700m)
So, 05.02. 9:30 7(1050m) 8(7500m)
So, 05.02. 9:00 5(<30m) 8(7800m)
So, 05.02. 8:30 8(<30m)
So, 05.02. 8:00 8(30m)
Ortszeit Luftdruck NN (hPa) Tendenz (hPa in 3 Std.)
So, 05.02. 7:00 1039 - 0,8
So, 05.02. 1:00 1040 + 0,4
Sa, 04.02. 19:00 1039 + 0,9
Sa, 04.02. 13:00 1035 + 0,2
Sa, 04.02. 7:00 1034 + 1,6
Sa, 04.02. 1:00 1032 + 0,2
Fr, 03.02. 19:00 1031 + 0,4
Fr, 03.02. 13:00 1032 - 0,6
Ortszeit Luftdruck NN (hPa) Tendenz (hPa in 3 Std.)
So, 05.02. 11:00 1038 - 0,6
So, 05.02. 10:50 1038 keine Meldung
So, 05.02. 10:40 1038 keine Meldung
So, 05.02. 10:30 1038 + 0,1
So, 05.02. 10:20 1038 keine Meldung
So, 05.02. 10:10 1038 keine Meldung
So, 05.02. 10:00 1039 + 0,6
So, 05.02. 9:30 1039 + 0,9
So, 05.02. 9:00 1039 + 0,5
So, 05.02. 8:30 1039 + 0,4
So, 05.02. 8:00 1039 + 0,4
Ortszeit Schneehöhe (cm)
So, 05.02. 7:00 0
So, 05.02. 1:00 0
Sa, 04.02. 19:00 0
Sa, 04.02. 13:00 0
Sa, 04.02. 7:00 0
Sa, 04.02. 1:00 0
Fr, 03.02. 19:00 0
Fr, 03.02. 13:00 0
Ortszeit Schneehöhe (cm)
So, 05.02. 11:00 0
So, 05.02. 10:50 0
So, 05.02. 10:40 0
So, 05.02. 10:30 0
So, 05.02. 10:20 0
So, 05.02. 10:10 0
So, 05.02. 10:00 0
So, 05.02. 9:30 0
So, 05.02. 9:00 0
So, 05.02. 8:30 0
So, 05.02. 8:00 0
Link zu dieser Seite / Seite empfehlen

Das Wetter in ...